Weather at Bellingham International Airport

Public forecast

Using degrees Fahrenheit for public forecast. Weather courtesy of forecast.io.

Current aviation weather report (METAR) for Bellingham International Airport

Retrieved 2021/09/28 17:53 UTC (47 minutes ago):

KBLI 281753Z 18012KT 10SM BKN017 14/12 A2994 RMK AO2 SLP145 60017 T01390117 10139 20117 53019

Aviation forecast (TAF) for Bellingham International Airport

Retrieved 2021/09/28 18:42 UTC (0 seconds ago):

TAF KBLI 281740Z 2818/2918 17012G18KT P6SM VCSH SCT017 OVC030 TEMPO 2818/2822 BKN015 FM282200 18008KT P6SM VCSH SCT030 OVC060 FM290400 15007KT P6SM OVC045 FM291600 13010KT P6SM VCSH OVC035